sensor_id;sensor_type;location;lat;lon;timestamp;P1;durP1;ratioP1;P2;durP2;ratioP2
62610;SDS011;48683;48.084;17.272;2022-07-23T00:02:18;8.37;;;6.70;;
62610;SDS011;48683;48.084;17.272;2022-07-23T00:04:43;11.47;;;8.30;;
62610;SDS011;48683;48.084;17.272;2022-07-23T00:07:09;10.97;;;7.67;;
62610;SDS011;48683;48.084;17.272;2022-07-23T00:09:34;8.80;;;7.90;;
62610;SDS011;48683;48.084;17.272;2022-07-23T00:11:59;9.40;;;7.37;;
62610;SDS011;48683;48.084;17.272;2022-07-23T00:14:25;10.47;;;8.27;;
62610;SDS011;48683;48.084;17.272;2022-07-23T00:16:50;10.80;;;8.47;;
62610;SDS011;48683;48.084;17.272;2022-07-23T00:19:15;10.63;;;9.13;;
62610;SDS011;48683;48.084;17.272;2022-07-23T00:21:41;9.80;;;7.80;;
62610;SDS011;48683;48.084;17.272;2022-07-23T00:24:06;7.80;;;7.03;;
62610;SDS011;48683;48.084;17.272;2022-07-23T00:26:31;8.67;;;7.80;;
62610;SDS011;48683;48.084;17.272;2022-07-23T00:28:57;9.83;;;7.57;;
62610;SDS011;48683;48.084;17.272;2022-07-23T00:31:22;9.63;;;7.50;;
62610;SDS011;48683;48.084;17.272;2022-07-23T00:33:48;9.80;;;7.20;;
62610;SDS011;48683;48.084;17.272;2022-07-23T00:36:13;7.63;;;6.87;;
62610;SDS011;48683;48.084;17.272;2022-07-23T00:38:38;8.90;;;8.00;;
62610;SDS011;48683;48.084;17.272;2022-07-23T00:41:04;12.30;;;8.57;;
62610;SDS011;48683;48.084;17.272;2022-07-23T00:43:30;9.37;;;8.23;;
62610;SDS011;48683;48.084;17.272;2022-07-23T00:45:55;11.13;;;8.97;;
62610;SDS011;48683;48.084;17.272;2022-07-23T00:48:20;18.07;;;8.73;;
62610;SDS011;48683;48.084;17.272;2022-07-23T00:50:46;11.00;;;9.27;;
62610;SDS011;48683;48.084;17.272;2022-07-23T00:53:11;9.27;;;8.47;;
62610;SDS011;48683;48.084;17.272;2022-07-23T00:55:37;9.68;;;8.70;;
62610;SDS011;48683;48.084;17.272;2022-07-23T00:58:03;13.90;;;7.20;;
62610;SDS011;48683;48.084;17.272;2022-07-23T01:00:29;9.43;;;8.30;;
62610;SDS011;48683;48.084;17.272;2022-07-23T01:02:55;10.15;;;9.07;;
62610;SDS011;48683;48.084;17.272;2022-07-23T01:05:20;15.87;;;9.23;;
62610;SDS011;48683;48.084;17.272;2022-07-23T01:07:47;10.30;;;8.75;;
62610;SDS011;48683;48.084;17.272;2022-07-23T01:10:16;9.98;;;8.95;;
62610;SDS011;48683;48.084;17.272;2022-07-23T01:12:57;9.95;;;8.82;;
62610;SDS011;48683;48.084;17.272;2022-07-23T01:15:28;10.93;;;9.82;;
62610;SDS011;48683;48.084;17.272;2022-07-23T01:17:54;11.25;;;8.85;;
62610;SDS011;48683;48.084;17.272;2022-07-23T01:20:19;11.82;;;9.18;;
62610;SDS011;48683;48.084;17.272;2022-07-23T01:22:45;11.03;;;8.10;;
62610;SDS011;48683;48.084;17.272;2022-07-23T01:25:11;9.20;;;8.13;;
62610;SDS011;48683;48.084;17.272;2022-07-23T01:27:36;11.67;;;8.90;;
62610;SDS011;48683;48.084;17.272;2022-07-23T01:30:02;11.03;;;9.97;;
62610;SDS011;48683;48.084;17.272;2022-07-23T01:32:28;10.38;;;8.45;;
62610;SDS011;48683;48.084;17.272;2022-07-23T01:34:54;11.40;;;8.87;;
62610;SDS011;48683;48.084;17.272;2022-07-23T01:37:19;9.20;;;8.27;;
62610;SDS011;48683;48.084;17.272;2022-07-23T01:39:45;10.73;;;8.67;;
62610;SDS011;48683;48.084;17.272;2022-07-23T01:42:10;12.07;;;9.50;;
62610;SDS011;48683;48.084;17.272;2022-07-23T01:44:35;10.03;;;9.03;;
62610;SDS011;48683;48.084;17.272;2022-07-23T01:47:01;9.70;;;8.37;;
62610;SDS011;48683;48.084;17.272;2022-07-23T01:49:26;11.07;;;7.87;;
62610;SDS011;48683;48.084;17.272;2022-07-23T01:51:51;9.33;;;8.40;;
62610;SDS011;48683;48.084;17.272;2022-07-23T01:54:29;9.82;;;8.25;;
62610;SDS011;48683;48.084;17.272;2022-07-23T01:56:56;11.13;;;8.57;;
62610;SDS011;48683;48.084;17.272;2022-07-23T01:59:22;13.10;;;7.55;;
62610;SDS011;48683;48.084;17.272;2022-07-23T02:01:48;12.70;;;8.73;;
62610;SDS011;48683;48.084;17.272;2022-07-23T02:04:16;10.93;;;8.60;;
62610;SDS011;48683;48.084;17.272;2022-07-23T02:06:42;10.98;;;9.13;;
62610;SDS011;48683;48.084;17.272;2022-07-23T02:09:07;8.90;;;8.10;;
62610;SDS011;48683;48.084;17.272;2022-07-23T02:11:32;11.13;;;8.30;;
62610;SDS011;48683;48.084;17.272;2022-07-23T02:13:58;13.33;;;8.43;;
62610;SDS011;48683;48.084;17.272;2022-07-23T02:16:23;11.20;;;8.70;;
62610;SDS011;48683;48.084;17.272;2022-07-23T02:18:48;9.37;;;8.57;;
62610;SDS011;48683;48.084;17.272;2022-07-23T02:21:14;13.30;;;8.27;;
62610;SDS011;48683;48.084;17.272;2022-07-23T02:23:39;8.50;;;7.80;;
62610;SDS011;48683;48.084;17.272;2022-07-23T02:26:05;10.67;;;8.43;;
62610;SDS011;48683;48.084;17.272;2022-07-23T02:28:30;8.10;;;7.40;;
62610;SDS011;48683;48.084;17.272;2022-07-23T02:30:56;8.90;;;7.93;;
62610;SDS011;48683;48.084;17.272;2022-07-23T02:33:21;9.03;;;7.50;;
62610;SDS011;48683;48.084;17.272;2022-07-23T02:35:46;10.13;;;8.30;;
62610;SDS011;48683;48.084;17.272;2022-07-23T02:38:12;9.53;;;8.33;;
62610;SDS011;48683;48.084;17.272;2022-07-23T02:40:37;9.63;;;8.60;;
62610;SDS011;48683;48.084;17.272;2022-07-23T02:43:03;10.40;;;8.70;;
62610;SDS011;48683;48.084;17.272;2022-07-23T02:45:28;10.23;;;8.27;;
62610;SDS011;48683;48.084;17.272;2022-07-23T02:47:53;9.50;;;8.03;;
62610;SDS011;48683;48.084;17.272;2022-07-23T02:50:19;7.83;;;7.07;;
62610;SDS011;48683;48.084;17.272;2022-07-23T02:52:44;9.23;;;7.23;;
62610;SDS011;48683;48.084;17.272;2022-07-23T02:55:09;10.33;;;8.53;;
62610;SDS011;48683;48.084;17.272;2022-07-23T02:57:35;9.50;;;8.60;;
62610;SDS011;48683;48.084;17.272;2022-07-23T03:00:01;13.53;;;8.47;;
62610;SDS011;48683;48.084;17.272;2022-07-23T03:02:27;9.30;;;8.40;;
62610;SDS011;48683;48.084;17.272;2022-07-23T03:04:52;8.07;;;6.97;;
62610;SDS011;48683;48.084;17.272;2022-07-23T03:07:17;10.20;;;7.37;;
62610;SDS011;48683;48.084;17.272;2022-07-23T03:09:43;9.80;;;8.63;;
62610;SDS011;48683;48.084;17.272;2022-07-23T03:12:08;12.83;;;8.60;;
62610;SDS011;48683;48.084;17.272;2022-07-23T03:14:34;10.77;;;8.80;;
62610;SDS011;48683;48.084;17.272;2022-07-23T03:16:59;12.03;;;8.67;;
62610;SDS011;48683;48.084;17.272;2022-07-23T03:19:27;11.95;;;8.60;;
62610;SDS011;48683;48.084;17.272;2022-07-23T03:21:52;7.77;;;6.97;;
62610;SDS011;48683;48.084;17.272;2022-07-23T03:24:18;10.07;;;8.70;;
62610;SDS011;48683;48.084;17.272;2022-07-23T03:26:43;11.90;;;8.20;;
62610;SDS011;48683;48.084;17.272;2022-07-23T03:29:09;8.95;;;7.70;;
62610;SDS011;48683;48.084;17.272;2022-07-23T03:31:35;10.63;;;7.60;;
62610;SDS011;48683;48.084;17.272;2022-07-23T03:34:00;10.67;;;7.20;;
62610;SDS011;48683;48.084;17.272;2022-07-23T03:36:26;9.73;;;7.23;;
62610;SDS011;48683;48.084;17.272;2022-07-23T03:38:52;14.17;;;8.47;;
62610;SDS011;48683;48.084;17.272;2022-07-23T03:41:18;12.57;;;8.90;;
62610;SDS011;48683;48.084;17.272;2022-07-23T03:46:10;9.13;;;6.60;;
62610;SDS011;48683;48.084;17.272;2022-07-23T03:48:35;9.93;;;8.27;;
62610;SDS011;48683;48.084;17.272;2022-07-23T03:51:01;8.67;;;7.83;;
62610;SDS011;48683;48.084;17.272;2022-07-23T03:53:26;9.50;;;7.40;;
62610;SDS011;48683;48.084;17.272;2022-07-23T03:55:51;10.00;;;8.07;;
62610;SDS011;48683;48.084;17.272;2022-07-23T03:58:17;8.53;;;7.43;;
62610;SDS011;48683;48.084;17.272;2022-07-23T04:00:42;10.00;;;8.23;;
62610;SDS011;48683;48.084;17.272;2022-07-23T04:03:07;10.37;;;8.23;;
62610;SDS011;48683;48.084;17.272;2022-07-23T04:05:33;10.27;;;9.00;;
62610;SDS011;48683;48.084;17.272;2022-07-23T04:07:58;9.43;;;8.00;;
62610;SDS011;48683;48.084;17.272;2022-07-23T04:10:24;10.67;;;8.03;;
62610;SDS011;48683;48.084;17.272;2022-07-23T04:12:49;10.87;;;9.07;;
62610;SDS011;48683;48.084;17.272;2022-07-23T04:15:14;11.73;;;8.37;;
62610;SDS011;48683;48.084;17.272;2022-07-23T04:17:40;10.60;;;8.00;;
62610;SDS011;48683;48.084;17.272;2022-07-23T04:20:05;9.07;;;8.00;;
62610;SDS011;48683;48.084;17.272;2022-07-23T04:22:31;8.77;;;7.97;;
62610;SDS011;48683;48.084;17.272;2022-07-23T04:24:56;9.03;;;8.07;;
62610;SDS011;48683;48.084;17.272;2022-07-23T04:27:21;8.97;;;8.07;;
62610;SDS011;48683;48.084;17.272;2022-07-23T04:29:47;9.37;;;8.53;;
62610;SDS011;48683;48.084;17.272;2022-07-23T04:32:12;11.30;;;8.43;;
62610;SDS011;48683;48.084;17.272;2022-07-23T04:34:37;10.93;;;8.27;;
62610;SDS011;48683;48.084;17.272;2022-07-23T04:37:03;8.93;;;8.03;;
62610;SDS011;48683;48.084;17.272;2022-07-23T04:39:28;15.73;;;8.50;;
62610;SDS011;48683;48.084;17.272;2022-07-23T04:41:53;8.57;;;7.73;;
62610;SDS011;48683;48.084;17.272;2022-07-23T04:44:19;11.80;;;8.43;;
62610;SDS011;48683;48.084;17.272;2022-07-23T04:46:44;12.77;;;8.27;;
62610;SDS011;48683;48.084;17.272;2022-07-23T04:49:10;8.27;;;7.37;;
62610;SDS011;48683;48.084;17.272;2022-07-23T04:51:35;9.10;;;8.23;;
62610;SDS011;48683;48.084;17.272;2022-07-23T04:54:00;13.87;;;8.97;;
62610;SDS011;48683;48.084;17.272;2022-07-23T04:56:26;9.40;;;8.40;;
62610;SDS011;48683;48.084;17.272;2022-07-23T04:58:51;10.60;;;9.50;;
62610;SDS011;48683;48.084;17.272;2022-07-23T05:01:16;9.23;;;8.40;;
62610;SDS011;48683;48.084;17.272;2022-07-23T05:03:42;9.27;;;8.30;;
62610;SDS011;48683;48.084;17.272;2022-07-23T05:06:07;14.80;;;8.50;;
62610;SDS011;48683;48.084;17.272;2022-07-23T05:08:33;15.13;;;7.80;;
62610;SDS011;48683;48.084;17.272;2022-07-23T05:10:58;9.13;;;7.77;;
62610;SDS011;48683;48.084;17.272;2022-07-23T05:13:23;15.87;;;7.77;;
62610;SDS011;48683;48.084;17.272;2022-07-23T05:15:49;15.03;;;9.17;;
62610;SDS011;48683;48.084;17.272;2022-07-23T05:18:14;14.00;;;8.87;;
62610;SDS011;48683;48.084;17.272;2022-07-23T05:20:39;11.50;;;8.63;;
62610;SDS011;48683;48.084;17.272;2022-07-23T05:23:05;17.77;;;8.83;;
62610;SDS011;48683;48.084;17.272;2022-07-23T05:25:30;49.23;;;10.37;;
62610;SDS011;48683;48.084;17.272;2022-07-23T05:27:55;27.10;;;10.13;;
62610;SDS011;48683;48.084;17.272;2022-07-23T05:30:21;19.37;;;9.13;;
62610;SDS011;48683;48.084;17.272;2022-07-23T05:32:46;15.77;;;8.30;;
62610;SDS011;48683;48.084;17.272;2022-07-23T05:35:11;15.67;;;8.57;;
62610;SDS011;48683;48.084;17.272;2022-07-23T05:37:37;8.77;;;7.90;;
62610;SDS011;48683;48.084;17.272;2022-07-23T05:40:07;9.47;;;8.13;;
62610;SDS011;48683;48.084;17.272;2022-07-23T05:42:37;10.02;;;8.77;;
62610;SDS011;48683;48.084;17.272;2022-07-23T05:45:04;9.98;;;8.43;;
62610;SDS011;48683;48.084;17.272;2022-07-23T05:47:43;11.10;;;7.88;;
62610;SDS011;48683;48.084;17.272;2022-07-23T05:50:10;16.55;;;8.57;;
62610;SDS011;48683;48.084;17.272;2022-07-23T05:52:36;12.77;;;8.43;;
62610;SDS011;48683;48.084;17.272;2022-07-23T05:55:02;10.70;;;7.80;;
62610;SDS011;48683;48.084;17.272;2022-07-23T05:57:28;9.27;;;8.37;;
62610;SDS011;48683;48.084;17.272;2022-07-23T05:59:53;12.53;;;8.30;;
62610;SDS011;48683;48.084;17.272;2022-07-23T06:02:18;15.17;;;9.13;;
62610;SDS011;48683;48.084;17.272;2022-07-23T06:04:44;11.40;;;7.30;;
62610;SDS011;48683;48.084;17.272;2022-07-23T06:07:09;11.03;;;7.80;;
62610;SDS011;48683;48.084;17.272;2022-07-23T06:09:34;12.07;;;7.53;;
62610;SDS011;48683;48.084;17.272;2022-07-23T06:12:00;10.50;;;8.10;;
62610;SDS011;48683;48.084;17.272;2022-07-23T06:14:25;12.67;;;7.80;;
62610;SDS011;48683;48.084;17.272;2022-07-23T06:16:50;10.10;;;7.27;;
62610;SDS011;48683;48.084;17.272;2022-07-23T06:19:16;10.27;;;7.43;;
62610;SDS011;48683;48.084;17.272;2022-07-23T06:21:41;7.77;;;7.00;;
62610;SDS011;48683;48.084;17.272;2022-07-23T06:24:06;9.80;;;7.47;;
62610;SDS011;48683;48.084;17.272;2022-07-23T06:26:32;8.83;;;6.90;;
62610;SDS011;48683;48.084;17.272;2022-07-23T06:28:57;10.03;;;7.73;;
62610;SDS011;48683;48.084;17.272;2022-07-23T06:31:22;11.40;;;7.60;;
62610;SDS011;48683;48.084;17.272;2022-07-23T06:33:48;8.43;;;7.60;;
62610;SDS011;48683;48.084;17.272;2022-07-23T06:36:13;10.43;;;7.37;;
62610;SDS011;48683;48.084;17.272;2022-07-23T06:38:38;15.43;;;7.70;;
62610;SDS011;48683;48.084;17.272;2022-07-23T06:41:04;9.60;;;7.90;;
62610;SDS011;48683;48.084;17.272;2022-07-23T06:43:30;10.53;;;7.73;;
62610;SDS011;48683;48.084;17.272;2022-07-23T06:45:56;12.40;;;7.47;;
62610;SDS011;48683;48.084;17.272;2022-07-23T06:48:21;12.03;;;8.73;;
62610;SDS011;48683;48.084;17.272;2022-07-23T06:50:47;11.55;;;7.68;;
62610;SDS011;48683;48.084;17.272;2022-07-23T06:53:13;13.97;;;8.10;;
62610;SDS011;48683;48.084;17.272;2022-07-23T06:55:38;10.20;;;7.50;;
62610;SDS011;48683;48.084;17.272;2022-07-23T06:58:05;12.20;;;7.50;;
62610;SDS011;48683;48.084;17.272;2022-07-23T07:00:30;10.20;;;8.43;;
62610;SDS011;48683;48.084;17.272;2022-07-23T07:02:56;12.73;;;8.90;;
62610;SDS011;48683;48.084;17.272;2022-07-23T07:05:21;12.57;;;7.53;;
62610;SDS011;48683;48.084;17.272;2022-07-23T07:10:13;8.73;;;7.60;;
62610;SDS011;48683;48.084;17.272;2022-07-23T07:12:38;8.83;;;7.97;;
62610;SDS011;48683;48.084;17.272;2022-07-23T07:15:04;10.93;;;7.13;;
62610;SDS011;48683;48.084;17.272;2022-07-23T07:17:29;7.85;;;7.05;;
62610;SDS011;48683;48.084;17.272;2022-07-23T07:19:56;10.88;;;7.07;;
62610;SDS011;48683;48.084;17.272;2022-07-23T07:22:21;8.00;;;7.07;;
62610;SDS011;48683;48.084;17.272;2022-07-23T07:24:46;10.47;;;7.30;;
62610;SDS011;48683;48.084;17.272;2022-07-23T07:27:12;7.40;;;6.70;;
62610;SDS011;48683;48.084;17.272;2022-07-23T07:29:37;11.57;;;6.87;;
62610;SDS011;48683;48.084;17.272;2022-07-23T07:32:02;8.73;;;7.33;;
62610;SDS011;48683;48.084;17.272;2022-07-23T07:34:28;17.17;;;7.55;;
62610;SDS011;48683;48.084;17.272;2022-07-23T07:36:54;11.53;;;7.50;;
62610;SDS011;48683;48.084;17.272;2022-07-23T07:39:19;9.90;;;7.73;;
62610;SDS011;48683;48.084;17.272;2022-07-23T07:41:44;10.27;;;7.57;;
62610;SDS011;48683;48.084;17.272;2022-07-23T07:44:10;11.30;;;8.23;;
62610;SDS011;48683;48.084;17.272;2022-07-23T07:46:35;8.80;;;7.90;;
62610;SDS011;48683;48.084;17.272;2022-07-23T07:49:00;9.07;;;7.43;;
62610;SDS011;48683;48.084;17.272;2022-07-23T07:51:26;8.53;;;7.47;;
62610;SDS011;48683;48.084;17.272;2022-07-23T07:56:17;8.97;;;7.83;;
62610;SDS011;48683;48.084;17.272;2022-07-23T07:58:42;10.83;;;7.83;;
62610;SDS011;48683;48.084;17.272;2022-07-23T08:01:08;8.07;;;7.27;;
62610;SDS011;48683;48.084;17.272;2022-07-23T08:03:33;11.57;;;7.97;;
62610;SDS011;48683;48.084;17.272;2022-07-23T08:05:58;8.73;;;7.80;;
62610;SDS011;48683;48.084;17.272;2022-07-23T08:08:23;10.83;;;8.33;;
62610;SDS011;48683;48.084;17.272;2022-07-23T08:10:49;12.18;;;8.40;;
62610;SDS011;48683;48.084;17.272;2022-07-23T08:13:15;10.50;;;8.45;;
62610;SDS011;48683;48.084;17.272;2022-07-23T08:15:42;9.32;;;7.82;;
62610;SDS011;48683;48.084;17.272;2022-07-23T08:18:08;11.57;;;7.93;;
62610;SDS011;48683;48.084;17.272;2022-07-23T08:20:34;9.68;;;7.40;;
62610;SDS011;48683;48.084;17.272;2022-07-23T08:23:03;8.30;;;7.47;;
62610;SDS011;48683;48.084;17.272;2022-07-23T08:25:31;9.52;;;7.47;;
62610;SDS011;48683;48.084;17.272;2022-07-23T08:27:59;9.00;;;6.72;;
62610;SDS011;48683;48.084;17.272;2022-07-23T08:30:25;10.30;;;7.72;;
62610;SDS011;48683;48.084;17.272;2022-07-23T08:32:56;8.75;;;7.30;;
62610;SDS011;48683;48.084;17.272;2022-07-23T08:35:29;7.82;;;7.10;;
62610;SDS011;48683;48.084;17.272;2022-07-23T08:37:55;13.75;;;7.03;;
62610;SDS011;48683;48.084;17.272;2022-07-23T08:40:24;9.27;;;7.22;;
62610;SDS011;48683;48.084;17.272;2022-07-23T08:42:51;12.73;;;6.88;;
62610;SDS011;48683;48.084;17.272;2022-07-23T08:45:20;10.27;;;7.30;;
62610;SDS011;48683;48.084;17.272;2022-07-23T08:47:52;9.00;;;7.50;;
62610;SDS011;48683;48.084;17.272;2022-07-23T08:50:19;9.85;;;7.45;;
62610;SDS011;48683;48.084;17.272;2022-07-23T08:52:45;11.23;;;7.15;;
62610;SDS011;48683;48.084;17.272;2022-07-23T08:57:35;8.47;;;7.50;;
62610;SDS011;48683;48.084;17.272;2022-07-23T09:02:28;11.32;;;6.60;;
62610;SDS011;48683;48.084;17.272;2022-07-23T09:07:18;11.13;;;7.33;;
62610;SDS011;48683;48.084;17.272;2022-07-23T09:12:09;12.67;;;7.87;;
62610;SDS011;48683;48.084;17.272;2022-07-23T09:14:42;11.02;;;7.47;;
62610;SDS011;48683;48.084;17.272;2022-07-23T09:17:12;9.00;;;7.50;;
62610;SDS011;48683;48.084;17.272;2022-07-23T09:19:39;10.30;;;7.40;;
62610;SDS011;48683;48.084;17.272;2022-07-23T09:22:24;10.32;;;7.40;;
62610;SDS011;48683;48.084;17.272;2022-07-23T09:27:54;8.25;;;7.45;;
62610;SDS011;48683;48.084;17.272;2022-07-23T09:30:20;10.18;;;7.57;;
62610;SDS011;48683;48.084;17.272;2022-07-23T09:38:11;12.50;;;7.63;;
62610;SDS011;48683;48.084;17.272;2022-07-23T09:43:02;9.27;;;7.53;;
62610;SDS011;48683;48.084;17.272;2022-07-23T09:48:09;10.17;;;7.77;;
62610;SDS011;48683;48.084;17.272;2022-07-23T09:50:40;8.98;;;7.25;;
62610;SDS011;48683;48.084;17.272;2022-07-23T09:53:07;8.02;;;7.30;;
62610;SDS011;48683;48.084;17.272;2022-07-23T09:55:33;9.30;;;7.50;;
62610;SDS011;48683;48.084;17.272;2022-07-23T09:58:01;8.90;;;7.80;;
62610;SDS011;48683;48.084;17.272;2022-07-23T10:00:27;8.02;;;7.28;;
62610;SDS011;48683;48.084;17.272;2022-07-23T10:02:54;14.85;;;8.23;;
62610;SDS011;48683;48.084;17.272;2022-07-23T10:07:45;8.23;;;7.43;;
62610;SDS011;48683;48.084;17.272;2022-07-23T10:12:37;11.38;;;7.20;;
62610;SDS011;48683;48.084;17.272;2022-07-23T10:15:22;7.60;;;6.38;;
62610;SDS011;48683;48.084;17.272;2022-07-23T10:17:48;7.72;;;6.63;;
62610;SDS011;48683;48.084;17.272;2022-07-23T10:20:13;6.75;;;6.20;;
62610;SDS011;48683;48.084;17.272;2022-07-23T10:22:44;9.82;;;6.32;;
62610;SDS011;48683;48.084;17.272;2022-07-23T10:25:22;13.30;;;6.13;;
62610;SDS011;48683;48.084;17.272;2022-07-23T10:27:56;10.77;;;6.40;;
62610;SDS011;48683;48.084;17.272;2022-07-23T10:30:35;6.97;;;6.03;;
62610;SDS011;48683;48.084;17.272;2022-07-23T10:36:04;6.95;;;6.20;;
62610;SDS011;48683;48.084;17.272;2022-07-23T10:38:39;9.50;;;6.32;;
62610;SDS011;48683;48.084;17.272;2022-07-23T10:41:13;9.93;;;6.40;;
62610;SDS011;48683;48.084;17.272;2022-07-23T10:43:38;8.02;;;6.30;;
62610;SDS011;48683;48.084;17.272;2022-07-23T10:46:23;7.82;;;6.47;;
62610;SDS011;48683;48.084;17.272;2022-07-23T10:49:20;8.05;;;5.95;;
62610;SDS011;48683;48.084;17.272;2022-07-23T10:54:41;7.18;;;5.93;;
62610;SDS011;48683;48.084;17.272;2022-07-23T10:57:27;6.68;;;6.07;;
62610;SDS011;48683;48.084;17.272;2022-07-23T11:02:30;9.68;;;6.10;;
62610;SDS011;48683;48.084;17.272;2022-07-23T11:05:07;8.90;;;6.38;;
62610;SDS011;48683;48.084;17.272;2022-07-23T11:10:37;9.82;;;6.10;;
62610;SDS011;48683;48.084;17.272;2022-07-23T11:23:57;7.10;;;6.30;;
62610;SDS011;48683;48.084;17.272;2022-07-23T11:31:56;7.95;;;6.63;;
62610;SDS011;48683;48.084;17.272;2022-07-23T11:34:39;6.60;;;5.88;;
62610;SDS011;48683;48.084;17.272;2022-07-23T11:37:11;9.38;;;6.03;;
62610;SDS011;48683;48.084;17.272;2022-07-23T11:39:56;7.35;;;6.03;;
62610;SDS011;48683;48.084;17.272;2022-07-23T11:42:23;6.47;;;5.75;;
62610;SDS011;48683;48.084;17.272;2022-07-23T11:44:49;8.10;;;6.13;;
62610;SDS011;48683;48.084;17.272;2022-07-23T11:47:15;6.25;;;5.75;;
62610;SDS011;48683;48.084;17.272;2022-07-23T11:49:54;8.27;;;6.50;;
62610;SDS011;48683;48.084;17.272;2022-07-23T11:52:20;7.53;;;5.88;;
62610;SDS011;48683;48.084;17.272;2022-07-23T11:54:56;6.82;;;5.50;;
62610;SDS011;48683;48.084;17.272;2022-07-23T11:57:28;8.57;;;5.45;;
62610;SDS011;48683;48.084;17.272;2022-07-23T12:00:17;6.32;;;5.70;;
62610;SDS011;48683;48.084;17.272;2022-07-23T12:02:46;6.50;;;5.90;;
62610;SDS011;48683;48.084;17.272;2022-07-23T12:05:21;9.57;;;5.93;;
62610;SDS011;48683;48.084;17.272;2022-07-23T12:07:51;8.02;;;5.63;;
62610;SDS011;48683;48.084;17.272;2022-07-23T12:10:19;6.95;;;5.28;;
62610;SDS011;48683;48.084;17.272;2022-07-23T12:12:48;5.78;;;5.18;;
62610;SDS011;48683;48.084;17.272;2022-07-23T12:15:20;5.82;;;5.15;;
62610;SDS011;48683;48.084;17.272;2022-07-23T12:17:48;6.40;;;5.00;;
62610;SDS011;48683;48.084;17.272;2022-07-23T12:20:15;6.65;;;5.28;;
62610;SDS011;48683;48.084;17.272;2022-07-23T12:22:44;5.63;;;5.03;;
62610;SDS011;48683;48.084;17.272;2022-07-23T12:25:12;5.90;;;4.65;;
62610;SDS011;48683;48.084;17.272;2022-07-23T12:27:40;5.00;;;4.50;;
62610;SDS011;48683;48.084;17.272;2022-07-23T12:30:19;7.00;;;4.93;;
62610;SDS011;48683;48.084;17.272;2022-07-23T12:32:50;5.43;;;4.97;;
62610;SDS011;48683;48.084;17.272;2022-07-23T12:35:17;7.43;;;4.70;;
62610;SDS011;48683;48.084;17.272;2022-07-23T12:37:44;4.80;;;4.40;;
62610;SDS011;48683;48.084;17.272;2022-07-23T12:40:30;4.50;;;3.75;;
62610;SDS011;48683;48.084;17.272;2022-07-23T12:43:01;5.07;;;4.20;;
62610;SDS011;48683;48.084;17.272;2022-07-23T12:45:41;5.90;;;4.20;;
62610;SDS011;48683;48.084;17.272;2022-07-23T12:48:14;4.93;;;3.88;;
62610;SDS011;48683;48.084;17.272;2022-07-23T12:53:08;4.28;;;3.83;;
62610;SDS011;48683;48.084;17.272;2022-07-23T12:55:36;4.40;;;4.00;;
62610;SDS011;48683;48.084;17.272;2022-07-23T12:58:06;5.63;;;4.20;;
62610;SDS011;48683;48.084;17.272;2022-07-23T13:00:55;5.10;;;4.28;;
62610;SDS011;48683;48.084;17.272;2022-07-23T13:03:22;6.05;;;4.00;;
62610;SDS011;48683;48.084;17.272;2022-07-23T13:05:48;4.55;;;4.07;;
62610;SDS011;48683;48.084;17.272;2022-07-23T13:08:14;4.00;;;3.70;;
62610;SDS011;48683;48.084;17.272;2022-07-23T13:10:39;4.45;;;3.40;;
62610;SDS011;48683;48.084;17.272;2022-07-23T13:13:08;6.47;;;3.78;;
62610;SDS011;48683;48.084;17.272;2022-07-23T13:15:35;4.65;;;3.00;;
62610;SDS011;48683;48.084;17.272;2022-07-23T13:18:00;4.63;;;3.30;;
62610;SDS011;48683;48.084;17.272;2022-07-23T13:20:25;3.58;;;3.00;;
62610;SDS011;48683;48.084;17.272;2022-07-23T13:22:51;5.13;;;3.67;;
62610;SDS011;48683;48.084;17.272;2022-07-23T13:25:16;4.95;;;3.55;;
62610;SDS011;48683;48.084;17.272;2022-07-23T13:27:41;6.28;;;3.88;;
62610;SDS011;48683;48.084;17.272;2022-07-23T13:30:07;5.13;;;4.03;;
62610;SDS011;48683;48.084;17.272;2022-07-23T13:32:34;4.25;;;3.78;;
62610;SDS011;48683;48.084;17.272;2022-07-23T13:34:59;7.45;;;3.97;;
62610;SDS011;48683;48.084;17.272;2022-07-23T13:37:25;5.95;;;4.10;;
62610;SDS011;48683;48.084;17.272;2022-07-23T13:39:51;6.57;;;4.20;;
62610;SDS011;48683;48.084;17.272;2022-07-23T13:42:16;5.78;;;4.40;;
62610;SDS011;48683;48.084;17.272;2022-07-23T13:44:42;4.93;;;4.53;;
62610;SDS011;48683;48.084;17.272;2022-07-23T13:47:08;5.13;;;4.72;;
62610;SDS011;48683;48.084;17.272;2022-07-23T13:49:33;6.43;;;4.55;;
62610;SDS011;48683;48.084;17.272;2022-07-23T13:51:59;7.80;;;5.00;;
62610;SDS011;48683;48.084;17.272;2022-07-23T13:54:24;5.40;;;4.80;;
62610;SDS011;48683;48.084;17.272;2022-07-23T13:56:50;8.15;;;5.70;;
62610;SDS011;48683;48.084;17.272;2022-07-23T13:59:15;7.97;;;5.80;;
62610;SDS011;48683;48.084;17.272;2022-07-23T14:01:40;8.68;;;6.18;;
62610;SDS011;48683;48.084;17.272;2022-07-23T14:08:56;9.00;;;6.80;;
62610;SDS011;48683;48.084;17.272;2022-07-23T14:11:21;10.60;;;6.32;;
62610;SDS011;48683;48.084;17.272;2022-07-23T14:16:12;10.17;;;6.80;;
62610;SDS011;48683;48.084;17.272;2022-07-23T14:18:37;14.35;;;7.18;;
62610;SDS011;48683;48.084;17.272;2022-07-23T14:25:53;7.40;;;6.70;;
62610;SDS011;48683;48.084;17.272;2022-07-23T14:30:44;6.57;;;5.87;;
62610;SDS011;48683;48.084;17.272;2022-07-23T14:35:34;7.50;;;5.43;;
62610;SDS011;48683;48.084;17.272;2022-07-23T14:40:25;9.63;;;5.75;;
62610;SDS011;48683;48.084;17.272;2022-07-23T14:45:16;7.07;;;5.83;;
62610;SDS011;48683;48.084;17.272;2022-07-23T14:47:41;8.25;;;5.68;;
62610;SDS011;48683;48.084;17.272;2022-07-23T14:52:32;9.13;;;6.13;;
62610;SDS011;48683;48.084;17.272;2022-07-23T14:57:23;5.90;;;5.33;;
62610;SDS011;48683;48.084;17.272;2022-07-23T14:59:48;14.53;;;6.00;;
62610;SDS011;48683;48.084;17.272;2022-07-23T15:04:39;6.07;;;4.53;;
62610;SDS011;48683;48.084;17.272;2022-07-23T15:09:30;7.40;;;5.45;;
62610;SDS011;48683;48.084;17.272;2022-07-23T15:14:20;7.57;;;5.30;;
62610;SDS011;48683;48.084;17.272;2022-07-23T15:16:46;6.93;;;5.55;;
62610;SDS011;48683;48.084;17.272;2022-07-23T15:24:03;5.70;;;4.80;;
62610;SDS011;48683;48.084;17.272;2022-07-23T15:28:54;7.88;;;5.13;;
62610;SDS011;48683;48.084;17.272;2022-07-23T15:31:21;5.78;;;4.25;;
62610;SDS011;48683;48.084;17.272;2022-07-23T15:38:37;4.87;;;4.33;;
62610;SDS011;48683;48.084;17.272;2022-07-23T15:48:19;6.33;;;4.90;;
62610;SDS011;48683;48.084;17.272;2022-07-23T15:50:45;6.05;;;4.40;;
62610;SDS011;48683;48.084;17.272;2022-07-23T15:55:36;4.93;;;4.37;;
62610;SDS011;48683;48.084;17.272;2022-07-23T15:58:03;5.68;;;4.50;;
62610;SDS011;48683;48.084;17.272;2022-07-23T16:02:54;4.40;;;4.00;;
62610;SDS011;48683;48.084;17.272;2022-07-23T16:07:44;5.10;;;4.50;;
62610;SDS011;48683;48.084;17.272;2022-07-23T16:15:01;5.70;;;3.88;;
62610;SDS011;48683;48.084;17.272;2022-07-23T16:19:53;5.38;;;3.95;;
62610;SDS011;48683;48.084;17.272;2022-07-23T16:24:43;6.60;;;3.80;;
62610;SDS011;48683;48.084;17.272;2022-07-23T16:32:00;4.13;;;2.90;;
62610;SDS011;48683;48.084;17.272;2022-07-23T16:39:16;5.13;;;3.00;;
62610;SDS011;48683;48.084;17.272;2022-07-23T16:44:07;5.30;;;2.60;;
62610;SDS011;48683;48.084;17.272;2022-07-23T16:51:22;3.00;;;2.70;;
62610;SDS011;48683;48.084;17.272;2022-07-23T16:56:14;2.43;;;2.23;;
62610;SDS011;48683;48.084;17.272;2022-07-23T17:01:04;3.27;;;2.53;;
62610;SDS011;48683;48.084;17.272;2022-07-23T17:05:55;2.70;;;2.50;;
62610;SDS011;48683;48.084;17.272;2022-07-23T17:10:46;2.90;;;2.70;;